Midway, Minnesota
Current Conditions -  °F | °C
As of 3:53 AM on Friday 24 Oct 2014 (Local Time) from KPKD Reporting Station
Clear Clear  
Wind Chill: 47°   Ceiling: Unl
Heat Index: 49°   Visibility: 10mi
Dew Point: 41°   Wind: 6mph
Humidity: 74%   Direction: 140°SE
Pressure: 29.84"   Gusts: NA
Location:  46.7591°N, 94.9748°W
Report Text: KPKD 240853Z AUTO 14005KT 10SM CLR 09/05 A2984 RMK AO2 SLP107 T00940050 58005 TSNO
Loading
Personal Weather Stations






























Interactive Weather Map
Tropical Storm Tracking
New forecast layout! Learn more

10-Day Weather Forecast

Advertisements
Track Severe Weather on mobile